sensor_id;sensor_type;location;lat;lon;timestamp;P1;durP1;ratioP1;P2;durP2;ratioP2
51854;SDS011;37895;53.240;6.572;2023-08-30T00:00:39;20.98;;;18.30;;
51854;SDS011;37895;53.240;6.572;2023-08-30T00:03:05;22.30;;;20.30;;
51854;SDS011;37895;53.240;6.572;2023-08-30T00:05:31;20.30;;;18.52;;
51854;SDS011;37895;53.240;6.572;2023-08-30T00:07:57;20.42;;;18.65;;
51854;SDS011;37895;53.240;6.572;2023-08-30T00:10:23;21.55;;;19.65;;
51854;SDS011;37895;53.240;6.572;2023-08-30T00:12:49;20.67;;;18.88;;
51854;SDS011;37895;53.240;6.572;2023-08-30T00:15:14;20.17;;;18.38;;
51854;SDS011;37895;53.240;6.572;2023-08-30T00:17:40;19.77;;;17.98;;
51854;SDS011;37895;53.240;6.572;2023-08-30T00:20:06;19.13;;;17.35;;
51854;SDS011;37895;53.240;6.572;2023-08-30T00:22:33;21.13;;;19.23;;
51854;SDS011;37895;53.240;6.572;2023-08-30T00:24:59;19.92;;;18.02;;
51854;SDS011;37895;53.240;6.572;2023-08-30T00:27:25;19.60;;;17.90;;
51854;SDS011;37895;53.240;6.572;2023-08-30T00:29:51;21.83;;;19.80;;
51854;SDS011;37895;53.240;6.572;2023-08-30T00:32:16;20.10;;;18.20;;
51854;SDS011;37895;53.240;6.572;2023-08-30T00:34:42;19.75;;;18.05;;
51854;SDS011;37895;53.240;6.572;2023-08-30T00:37:08;19.52;;;17.83;;
51854;SDS011;37895;53.240;6.572;2023-08-30T00:39:34;20.23;;;18.17;;
51854;SDS011;37895;53.240;6.572;2023-08-30T00:42:02;20.20;;;18.33;;
51854;SDS011;37895;53.240;6.572;2023-08-30T00:44:31;21.80;;;19.70;;
51854;SDS011;37895;53.240;6.572;2023-08-30T00:49:23;19.33;;;17.52;;
51854;SDS011;37895;53.240;6.572;2023-08-30T00:51:48;20.15;;;18.27;;
51854;SDS011;37895;53.240;6.572;2023-08-30T00:54:14;19.13;;;17.38;;
51854;SDS011;37895;53.240;6.572;2023-08-30T00:59:06;18.25;;;16.55;;
51854;SDS011;37895;53.240;6.572;2023-08-30T01:01:32;19.60;;;17.77;;
51854;SDS011;37895;53.240;6.572;2023-08-30T01:03:58;17.55;;;16.05;;
51854;SDS011;37895;53.240;6.572;2023-08-30T01:06:23;18.38;;;16.55;;
51854;SDS011;37895;53.240;6.572;2023-08-30T01:08:49;17.42;;;15.73;;
51854;SDS011;37895;53.240;6.572;2023-08-30T01:11:19;17.08;;;15.38;;
51854;SDS011;37895;53.240;6.572;2023-08-30T01:14:04;15.85;;;14.32;;
51854;SDS011;37895;53.240;6.572;2023-08-30T01:16:35;15.70;;;14.05;;
51854;SDS011;37895;53.240;6.572;2023-08-30T01:19:05;15.88;;;14.38;;
51854;SDS011;37895;53.240;6.572;2023-08-30T01:27:28;15.07;;;13.55;;
51854;SDS011;37895;53.240;6.572;2023-08-30T01:29:57;15.80;;;14.20;;
51854;SDS011;37895;53.240;6.572;2023-08-30T01:32:23;15.35;;;13.88;;
51854;SDS011;37895;53.240;6.572;2023-08-30T01:34:51;14.10;;;12.77;;
51854;SDS011;37895;53.240;6.572;2023-08-30T01:37:17;15.25;;;13.85;;
51854;SDS011;37895;53.240;6.572;2023-08-30T01:39:43;15.75;;;14.07;;
51854;SDS011;37895;53.240;6.572;2023-08-30T01:42:09;15.75;;;14.20;;
51854;SDS011;37895;53.240;6.572;2023-08-30T01:44:36;16.30;;;14.70;;
51854;SDS011;37895;53.240;6.572;2023-08-30T01:47:04;15.52;;;13.55;;
51854;SDS011;37895;53.240;6.572;2023-08-30T01:49:31;16.23;;;14.55;;
51854;SDS011;37895;53.240;6.572;2023-08-30T01:51:58;15.80;;;14.40;;
51854;SDS011;37895;53.240;6.572;2023-08-30T01:54:24;14.57;;;13.18;;
51854;SDS011;37895;53.240;6.572;2023-08-30T01:56:51;14.38;;;12.98;;
51854;SDS011;37895;53.240;6.572;2023-08-30T01:59:17;14.32;;;12.90;;
51854;SDS011;37895;53.240;6.572;2023-08-30T02:01:43;13.75;;;12.45;;
51854;SDS011;37895;53.240;6.572;2023-08-30T02:04:09;15.23;;;13.68;;
51854;SDS011;37895;53.240;6.572;2023-08-30T02:07:17;14.82;;;13.25;;
51854;SDS011;37895;53.240;6.572;2023-08-30T02:09:35;13.65;;;12.15;;
51854;SDS011;37895;53.240;6.572;2023-08-30T02:12:15;14.00;;;12.30;;
51854;SDS011;37895;53.240;6.572;2023-08-30T02:14:43;14.18;;;12.68;;
51854;SDS011;37895;53.240;6.572;2023-08-30T02:17:13;13.05;;;11.75;;
51854;SDS011;37895;53.240;6.572;2023-08-30T02:19:40;13.52;;;12.18;;
51854;SDS011;37895;53.240;6.572;2023-08-30T02:22:07;14.07;;;12.57;;
51854;SDS011;37895;53.240;6.572;2023-08-30T02:24:33;13.23;;;11.77;;
51854;SDS011;37895;53.240;6.572;2023-08-30T02:26:59;13.60;;;12.20;;
51854;SDS011;37895;53.240;6.572;2023-08-30T02:29:24;12.68;;;11.48;;
51854;SDS011;37895;53.240;6.572;2023-08-30T02:31:50;12.45;;;11.18;;
51854;SDS011;37895;53.240;6.572;2023-08-30T02:34:16;13.73;;;12.00;;
51854;SDS011;37895;53.240;6.572;2023-08-30T02:36:42;12.43;;;11.23;;
51854;SDS011;37895;53.240;6.572;2023-08-30T02:39:07;11.73;;;10.65;;
51854;SDS011;37895;53.240;6.572;2023-08-30T02:41:33;11.93;;;10.73;;
51854;SDS011;37895;53.240;6.572;2023-08-30T02:43:59;11.82;;;10.73;;
51854;SDS011;37895;53.240;6.572;2023-08-30T02:46:25;11.32;;;10.23;;
51854;SDS011;37895;53.240;6.572;2023-08-30T02:48:50;11.10;;;9.95;;
51854;SDS011;37895;53.240;6.572;2023-08-30T02:51:16;11.07;;;9.95;;
51854;SDS011;37895;53.240;6.572;2023-08-30T02:53:42;11.70;;;10.57;;
51854;SDS011;37895;53.240;6.572;2023-08-30T02:56:07;11.93;;;10.52;;
51854;SDS011;37895;53.240;6.572;2023-08-30T02:58:33;10.70;;;9.60;;
51854;SDS011;37895;53.240;6.572;2023-08-30T03:00:59;12.77;;;10.77;;
51854;SDS011;37895;53.240;6.572;2023-08-30T03:03:25;11.40;;;10.20;;
51854;SDS011;37895;53.240;6.572;2023-08-30T03:05:51;11.25;;;10.15;;
51854;SDS011;37895;53.240;6.572;2023-08-30T03:08:17;12.13;;;10.93;;
51854;SDS011;37895;53.240;6.572;2023-08-30T03:10:42;11.80;;;10.60;;
51854;SDS011;37895;53.240;6.572;2023-08-30T03:13:08;12.07;;;10.75;;
51854;SDS011;37895;53.240;6.572;2023-08-30T03:15:34;12.73;;;11.13;;
51854;SDS011;37895;53.240;6.572;2023-08-30T03:18:00;12.02;;;10.85;;
51854;SDS011;37895;53.240;6.572;2023-08-30T03:22:53;11.60;;;10.50;;
51854;SDS011;37895;53.240;6.572;2023-08-30T03:25:21;12.95;;;11.75;;
51854;SDS011;37895;53.240;6.572;2023-08-30T03:27:46;11.80;;;10.60;;
51854;SDS011;37895;53.240;6.572;2023-08-30T03:30:12;11.88;;;10.55;;
51854;SDS011;37895;53.240;6.572;2023-08-30T03:32:38;12.02;;;10.88;;
51854;SDS011;37895;53.240;6.572;2023-08-30T03:35:05;12.50;;;11.30;;
51854;SDS011;37895;53.240;6.572;2023-08-30T03:37:31;12.32;;;11.13;;
51854;SDS011;37895;53.240;6.572;2023-08-30T03:39:56;12.77;;;11.48;;
51854;SDS011;37895;53.240;6.572;2023-08-30T03:42:22;12.70;;;11.43;;
51854;SDS011;37895;53.240;6.572;2023-08-30T03:44:47;14.60;;;11.43;;
51854;SDS011;37895;53.240;6.572;2023-08-30T03:47:13;12.38;;;11.13;;
51854;SDS011;37895;53.240;6.572;2023-08-30T03:49:39;14.15;;;12.70;;
51854;SDS011;37895;53.240;6.572;2023-08-30T03:52:04;14.40;;;13.00;;
51854;SDS011;37895;53.240;6.572;2023-08-30T03:54:31;14.30;;;12.90;;
51854;SDS011;37895;53.240;6.572;2023-08-30T03:56:57;13.80;;;12.50;;
51854;SDS011;37895;53.240;6.572;2023-08-30T03:59:22;14.85;;;13.38;;
51854;SDS011;37895;53.240;6.572;2023-08-30T04:01:50;14.85;;;13.45;;
51854;SDS011;37895;53.240;6.572;2023-08-30T04:04:16;15.10;;;13.68;;
51854;SDS011;37895;53.240;6.572;2023-08-30T04:06:42;14.65;;;13.13;;
51854;SDS011;37895;53.240;6.572;2023-08-30T04:09:07;15.25;;;13.65;;
51854;SDS011;37895;53.240;6.572;2023-08-30T04:11:33;15.32;;;13.73;;
51854;SDS011;37895;53.240;6.572;2023-08-30T04:13:59;14.75;;;13.25;;
51854;SDS011;37895;53.240;6.572;2023-08-30T04:16:24;15.18;;;13.65;;
51854;SDS011;37895;53.240;6.572;2023-08-30T04:18:50;14.65;;;13.25;;
51854;SDS011;37895;53.240;6.572;2023-08-30T04:21:15;14.65;;;13.15;;
51854;SDS011;37895;53.240;6.572;2023-08-30T04:23:41;15.27;;;13.77;;
51854;SDS011;37895;53.240;6.572;2023-08-30T04:26:07;15.15;;;13.60;;
51854;SDS011;37895;53.240;6.572;2023-08-30T04:28:35;15.93;;;14.20;;
51854;SDS011;37895;53.240;6.572;2023-08-30T04:31:01;14.85;;;13.38;;
51854;SDS011;37895;53.240;6.572;2023-08-30T04:33:26;14.25;;;12.75;;
51854;SDS011;37895;53.240;6.572;2023-08-30T04:35:55;14.82;;;13.35;;
51854;SDS011;37895;53.240;6.572;2023-08-30T04:38:20;14.57;;;12.18;;
51854;SDS011;37895;53.240;6.572;2023-08-30T04:40:46;14.50;;;13.07;;
51854;SDS011;37895;53.240;6.572;2023-08-30T04:45:38;11.27;;;10.18;;
51854;SDS011;37895;53.240;6.572;2023-08-30T04:48:04;13.05;;;11.75;;
51854;SDS011;37895;53.240;6.572;2023-08-30T04:52:56;13.40;;;12.00;;
51854;SDS011;37895;53.240;6.572;2023-08-30T04:55:23;13.57;;;12.13;;
51854;SDS011;37895;53.240;6.572;2023-08-30T04:57:50;12.25;;;11.13;;
51854;SDS011;37895;53.240;6.572;2023-08-30T05:00:16;12.95;;;11.65;;
51854;SDS011;37895;53.240;6.572;2023-08-30T05:02:42;12.50;;;11.35;;
51854;SDS011;37895;53.240;6.572;2023-08-30T05:05:09;14.18;;;12.45;;
51854;SDS011;37895;53.240;6.572;2023-08-30T05:07:34;12.85;;;11.43;;
51854;SDS011;37895;53.240;6.572;2023-08-30T05:10:00;12.82;;;11.52;;
51854;SDS011;37895;53.240;6.572;2023-08-30T05:12:26;11.98;;;10.68;;
51854;SDS011;37895;53.240;6.572;2023-08-30T05:14:52;12.32;;;11.13;;
51854;SDS011;37895;53.240;6.572;2023-08-30T05:17:17;11.77;;;10.57;;
51854;SDS011;37895;53.240;6.572;2023-08-30T05:19:43;14.25;;;10.98;;
51854;SDS011;37895;53.240;6.572;2023-08-30T05:22:09;13.70;;;11.05;;
51854;SDS011;37895;53.240;6.572;2023-08-30T05:24:34;11.77;;;10.57;;
51854;SDS011;37895;53.240;6.572;2023-08-30T05:27:00;12.48;;;11.27;;
51854;SDS011;37895;53.240;6.572;2023-08-30T05:29:26;11.43;;;10.07;;
51854;SDS011;37895;53.240;6.572;2023-08-30T05:31:52;11.90;;;10.70;;
51854;SDS011;37895;53.240;6.572;2023-08-30T05:34:18;13.10;;;11.70;;
51854;SDS011;37895;53.240;6.572;2023-08-30T05:36:43;10.73;;;9.63;;
51854;SDS011;37895;53.240;6.572;2023-08-30T05:39:09;12.68;;;10.75;;
51854;SDS011;37895;53.240;6.572;2023-08-30T05:41:35;12.63;;;11.02;;
51854;SDS011;37895;53.240;6.572;2023-08-30T05:44:01;11.32;;;10.23;;
51854;SDS011;37895;53.240;6.572;2023-08-30T05:46:27;10.77;;;9.73;;
51854;SDS011;37895;53.240;6.572;2023-08-30T05:48:53;11.68;;;9.98;;
51854;SDS011;37895;53.240;6.572;2023-08-30T05:53:45;11.60;;;10.45;;
51854;SDS011;37895;53.240;6.572;2023-08-30T05:56:10;11.38;;;10.27;;
51854;SDS011;37895;53.240;6.572;2023-08-30T05:58:36;12.25;;;10.65;;
51854;SDS011;37895;53.240;6.572;2023-08-30T06:01:03;11.70;;;10.48;;
51854;SDS011;37895;53.240;6.572;2023-08-30T06:03:31;11.82;;;10.63;;
51854;SDS011;37895;53.240;6.572;2023-08-30T06:05:57;12.05;;;10.85;;
51854;SDS011;37895;53.240;6.572;2023-08-30T06:08:23;13.27;;;11.85;;
51854;SDS011;37895;53.240;6.572;2023-08-30T06:10:51;12.32;;;11.05;;
51854;SDS011;37895;53.240;6.572;2023-08-30T06:13:17;11.60;;;10.50;;
51854;SDS011;37895;53.240;6.572;2023-08-30T06:15:43;14.20;;;11.57;;
51854;SDS011;37895;53.240;6.572;2023-08-30T06:18:10;12.93;;;11.50;;
51854;SDS011;37895;53.240;6.572;2023-08-30T06:20:35;16.20;;;11.20;;
51854;SDS011;37895;53.240;6.572;2023-08-30T06:23:05;13.30;;;10.90;;
51854;SDS011;37895;53.240;6.572;2023-08-30T06:25:31;12.27;;;11.07;;
51854;SDS011;37895;53.240;6.572;2023-08-30T06:27:57;13.32;;;11.40;;
51854;SDS011;37895;53.240;6.572;2023-08-30T06:30:25;12.25;;;10.43;;
51854;SDS011;37895;53.240;6.572;2023-08-30T06:32:50;12.43;;;11.10;;
51854;SDS011;37895;53.240;6.572;2023-08-30T06:35:16;12.23;;;11.00;;
51854;SDS011;37895;53.240;6.572;2023-08-30T06:37:42;14.48;;;12.23;;
51854;SDS011;37895;53.240;6.572;2023-08-30T06:40:08;12.73;;;10.70;;
51854;SDS011;37895;53.240;6.572;2023-08-30T06:42:33;12.82;;;11.48;;
51854;SDS011;37895;53.240;6.572;2023-08-30T06:44:59;15.43;;;12.18;;
51854;SDS011;37895;53.240;6.572;2023-08-30T06:49:51;12.90;;;11.50;;
51854;SDS011;37895;53.240;6.572;2023-08-30T06:52:16;12.35;;;11.07;;
51854;SDS011;37895;53.240;6.572;2023-08-30T06:54:42;13.77;;;11.65;;
51854;SDS011;37895;53.240;6.572;2023-08-30T06:57:08;12.55;;;10.95;;
51854;SDS011;37895;53.240;6.572;2023-08-30T06:59:34;11.55;;;10.35;;
51854;SDS011;37895;53.240;6.572;2023-08-30T07:02:00;14.10;;;11.13;;
51854;SDS011;37895;53.240;6.572;2023-08-30T07:04:26;14.60;;;10.43;;
51854;SDS011;37895;53.240;6.572;2023-08-30T07:06:51;12.30;;;11.00;;
51854;SDS011;37895;53.240;6.572;2023-08-30T07:09:17;12.18;;;10.77;;
51854;SDS011;37895;53.240;6.572;2023-08-30T07:11:43;13.05;;;10.50;;
51854;SDS011;37895;53.240;6.572;2023-08-30T07:14:10;11.95;;;10.70;;
51854;SDS011;37895;53.240;6.572;2023-08-30T07:16:36;11.93;;;9.77;;
51854;SDS011;37895;53.240;6.572;2023-08-30T07:19:02;13.57;;;11.18;;
51854;SDS011;37895;53.240;6.572;2023-08-30T07:21:27;12.73;;;10.35;;
51854;SDS011;37895;53.240;6.572;2023-08-30T07:23:53;13.05;;;9.95;;
51854;SDS011;37895;53.240;6.572;2023-08-30T07:26:19;12.18;;;9.77;;
51854;SDS011;37895;53.240;6.572;2023-08-30T07:28:45;12.48;;;9.98;;
51854;SDS011;37895;53.240;6.572;2023-08-30T07:33:39;11.52;;;9.27;;
51854;SDS011;37895;53.240;6.572;2023-08-30T07:36:05;11.60;;;9.75;;
51854;SDS011;37895;53.240;6.572;2023-08-30T07:38:31;13.15;;;9.75;;
51854;SDS011;37895;53.240;6.572;2023-08-30T07:40:57;9.50;;;8.50;;
51854;SDS011;37895;53.240;6.572;2023-08-30T07:43:22;12.23;;;9.00;;
51854;SDS011;37895;53.240;6.572;2023-08-30T07:45:48;10.85;;;9.38;;
51854;SDS011;37895;53.240;6.572;2023-08-30T07:48:14;12.23;;;8.98;;
51854;SDS011;37895;53.240;6.572;2023-08-30T07:50:40;11.23;;;9.38;;
51854;SDS011;37895;53.240;6.572;2023-08-30T07:53:06;12.60;;;9.25;;
51854;SDS011;37895;53.240;6.572;2023-08-30T07:55:31;10.73;;;8.07;;
51854;SDS011;37895;53.240;6.572;2023-08-30T07:57:57;9.73;;;8.75;;
51854;SDS011;37895;53.240;6.572;2023-08-30T08:00:23;9.70;;;8.05;;
51854;SDS011;37895;53.240;6.572;2023-08-30T08:02:48;9.48;;;7.90;;
51854;SDS011;37895;53.240;6.572;2023-08-30T08:05:14;11.52;;;8.23;;
51854;SDS011;37895;53.240;6.572;2023-08-30T08:07:41;8.85;;;7.95;;
51854;SDS011;37895;53.240;6.572;2023-08-30T08:10:08;9.23;;;7.25;;
51854;SDS011;37895;53.240;6.572;2023-08-30T08:12:34;9.77;;;8.27;;
51854;SDS011;37895;53.240;6.572;2023-08-30T08:15:00;9.20;;;7.78;;
51854;SDS011;37895;53.240;6.572;2023-08-30T08:17:26;10.30;;;7.55;;
51854;SDS011;37895;53.240;6.572;2023-08-30T08:19:51;9.90;;;7.88;;
51854;SDS011;37895;53.240;6.572;2023-08-30T08:22:17;8.65;;;7.40;;
51854;SDS011;37895;53.240;6.572;2023-08-30T08:24:43;9.48;;;7.63;;
51854;SDS011;37895;53.240;6.572;2023-08-30T08:27:11;8.85;;;7.32;;
51854;SDS011;37895;53.240;6.572;2023-08-30T08:32:03;9.95;;;7.53;;
51854;SDS011;37895;53.240;6.572;2023-08-30T08:34:29;10.18;;;7.57;;
51854;SDS011;37895;53.240;6.572;2023-08-30T08:36:55;10.48;;;8.13;;
51854;SDS011;37895;53.240;6.572;2023-08-30T08:39:21;9.60;;;7.60;;
51854;SDS011;37895;53.240;6.572;2023-08-30T08:41:47;9.63;;;7.50;;
51854;SDS011;37895;53.240;6.572;2023-08-30T08:44:13;9.55;;;8.25;;
51854;SDS011;37895;53.240;6.572;2023-08-30T08:46:40;10.05;;;7.40;;
51854;SDS011;37895;53.240;6.572;2023-08-30T08:49:15;9.07;;;8.18;;
51854;SDS011;37895;53.240;6.572;2023-08-30T08:51:42;9.90;;;8.35;;
51854;SDS011;37895;53.240;6.572;2023-08-30T08:54:09;12.30;;;8.48;;
51854;SDS011;37895;53.240;6.572;2023-08-30T08:56:36;11.55;;;8.40;;
51854;SDS011;37895;53.240;6.572;2023-08-30T08:59:03;8.55;;;7.18;;
51854;SDS011;37895;53.240;6.572;2023-08-30T09:01:31;9.20;;;8.23;;
51854;SDS011;37895;53.240;6.572;2023-08-30T09:04:00;10.75;;;8.10;;
51854;SDS011;37895;53.240;6.572;2023-08-30T09:06:31;13.00;;;8.63;;
51854;SDS011;37895;53.240;6.572;2023-08-30T09:08:56;10.10;;;8.68;;
51854;SDS011;37895;53.240;6.572;2023-08-30T09:11:22;8.93;;;7.78;;
51854;SDS011;37895;53.240;6.572;2023-08-30T09:13:48;10.18;;;7.80;;
51854;SDS011;37895;53.240;6.572;2023-08-30T09:16:14;10.10;;;8.27;;
51854;SDS011;37895;53.240;6.572;2023-08-30T09:18:43;12.43;;;8.20;;
51854;SDS011;37895;53.240;6.572;2023-08-30T09:21:09;10.80;;;7.97;;
51854;SDS011;37895;53.240;6.572;2023-08-30T09:23:36;10.43;;;8.48;;
51854;SDS011;37895;53.240;6.572;2023-08-30T09:26:03;11.88;;;8.13;;
51854;SDS011;37895;53.240;6.572;2023-08-30T09:28:29;10.55;;;8.23;;
51854;SDS011;37895;53.240;6.572;2023-08-30T09:30:57;13.60;;;8.23;;
51854;SDS011;37895;53.240;6.572;2023-08-30T09:33:29;12.00;;;8.43;;
51854;SDS011;37895;53.240;6.572;2023-08-30T09:35:59;11.55;;;7.63;;
51854;SDS011;37895;53.240;6.572;2023-08-30T09:40:51;11.23;;;8.07;;
51854;SDS011;37895;53.240;6.572;2023-08-30T09:43:27;9.65;;;7.85;;
51854;SDS011;37895;53.240;6.572;2023-08-30T09:45:52;10.75;;;7.93;;
51854;SDS011;37895;53.240;6.572;2023-08-30T09:48:21;9.88;;;7.90;;
51854;SDS011;37895;53.240;6.572;2023-08-30T09:50:47;11.43;;;8.10;;
51854;SDS011;37895;53.240;6.572;2023-08-30T09:53:19;11.40;;;8.57;;
51854;SDS011;37895;53.240;6.572;2023-08-30T09:55:47;9.73;;;7.20;;
51854;SDS011;37895;53.240;6.572;2023-08-30T09:58:14;10.88;;;8.13;;
51854;SDS011;37895;53.240;6.572;2023-08-30T10:00:40;12.82;;;9.27;;
51854;SDS011;37895;53.240;6.572;2023-08-30T10:03:07;10.18;;;8.52;;
51854;SDS011;37895;53.240;6.572;2023-08-30T10:05:34;11.88;;;8.13;;
51854;SDS011;37895;53.240;6.572;2023-08-30T10:08:01;8.88;;;7.95;;
51854;SDS011;37895;53.240;6.572;2023-08-30T10:10:29;11.20;;;8.13;;
51854;SDS011;37895;53.240;6.572;2023-08-30T10:12:56;8.00;;;7.18;;
51854;SDS011;37895;53.240;6.572;2023-08-30T10:15:22;10.48;;;7.88;;
51854;SDS011;37895;53.240;6.572;2023-08-30T10:17:51;11.18;;;8.82;;
51854;SDS011;37895;53.240;6.572;2023-08-30T10:20:19;10.93;;;7.60;;
51854;SDS011;37895;53.240;6.572;2023-08-30T10:25:13;5.97;;;5.38;;
51854;SDS011;37895;53.240;6.572;2023-08-30T10:27:46;7.72;;;5.25;;
51854;SDS011;37895;53.240;6.572;2023-08-30T10:30:14;6.53;;;5.05;;
51854;SDS011;37895;53.240;6.572;2023-08-30T10:32:42;5.75;;;4.50;;
51854;SDS011;37895;53.240;6.572;2023-08-30T10:35:12;8.30;;;5.13;;
51854;SDS011;37895;53.240;6.572;2023-08-30T10:37:38;9.80;;;6.75;;
51854;SDS011;37895;53.240;6.572;2023-08-30T10:40:04;7.35;;;6.20;;
51854;SDS011;37895;53.240;6.572;2023-08-30T10:42:31;8.45;;;6.40;;
51854;SDS011;37895;53.240;6.572;2023-08-30T10:47:35;11.52;;;8.10;;
51854;SDS011;37895;53.240;6.572;2023-08-30T10:50:09;9.85;;;7.93;;
51854;SDS011;37895;53.240;6.572;2023-08-30T10:52:36;9.55;;;7.63;;
51854;SDS011;37895;53.240;6.572;2023-08-30T10:55:05;9.85;;;7.60;;
51854;SDS011;37895;53.240;6.572;2023-08-30T10:57:36;9.57;;;7.88;;
51854;SDS011;37895;53.240;6.572;2023-08-30T11:00:06;8.07;;;6.25;;
51854;SDS011;37895;53.240;6.572;2023-08-30T11:02:38;8.77;;;7.50;;
51854;SDS011;37895;53.240;6.572;2023-08-30T11:05:08;9.35;;;7.47;;
51854;SDS011;37895;53.240;6.572;2023-08-30T11:07:34;7.63;;;6.78;;
51854;SDS011;37895;53.240;6.572;2023-08-30T11:10:01;10.65;;;7.70;;
51854;SDS011;37895;53.240;6.572;2023-08-30T11:12:30;8.60;;;6.90;;
51854;SDS011;37895;53.240;6.572;2023-08-30T11:14:56;27.05;;;6.50;;
51854;SDS011;37895;53.240;6.572;2023-08-30T11:17:22;8.27;;;6.75;;
51854;SDS011;37895;53.240;6.572;2023-08-30T11:19:51;6.32;;;5.57;;
51854;SDS011;37895;53.240;6.572;2023-08-30T11:22:23;7.15;;;5.75;;
51854;SDS011;37895;53.240;6.572;2023-08-30T11:27:16;6.82;;;4.93;;
51854;SDS011;37895;53.240;6.572;2023-08-30T11:29:45;6.57;;;5.10;;
51854;SDS011;37895;53.240;6.572;2023-08-30T11:32:10;15.13;;;5.50;;
51854;SDS011;37895;53.240;6.572;2023-08-30T11:34:36;6.53;;;5.13;;
51854;SDS011;37895;53.240;6.572;2023-08-30T11:37:02;6.53;;;5.40;;
51854;SDS011;37895;53.240;6.572;2023-08-30T11:39:28;6.10;;;5.40;;
51854;SDS011;37895;53.240;6.572;2023-08-30T11:41:54;6.13;;;5.53;;
51854;SDS011;37895;53.240;6.572;2023-08-30T11:44:22;6.88;;;5.43;;
51854;SDS011;37895;53.240;6.572;2023-08-30T11:46:48;8.48;;;5.63;;
51854;SDS011;37895;53.240;6.572;2023-08-30T11:49:14;8.35;;;6.30;;
51854;SDS011;37895;53.240;6.572;2023-08-30T11:51:41;6.38;;;5.07;;
51854;SDS011;37895;53.240;6.572;2023-08-30T11:54:07;6.43;;;5.47;;
51854;SDS011;37895;53.240;6.572;2023-08-30T11:56:34;6.70;;;5.18;;
51854;SDS011;37895;53.240;6.572;2023-08-30T11:59:01;6.60;;;4.75;;
51854;SDS011;37895;53.240;6.572;2023-08-30T12:01:27;5.68;;;4.32;;
51854;SDS011;37895;53.240;6.572;2023-08-30T12:03:53;5.15;;;4.50;;
51854;SDS011;37895;53.240;6.572;2023-08-30T12:06:19;5.70;;;4.10;;
51854;SDS011;37895;53.240;6.572;2023-08-30T12:08:48;4.60;;;4.20;;
51854;SDS011;37895;53.240;6.572;2023-08-30T12:11:22;4.85;;;4.30;;
51854;SDS011;37895;53.240;6.572;2023-08-30T12:13:47;5.97;;;4.35;;
51854;SDS011;37895;53.240;6.572;2023-08-30T12:16:16;5.70;;;3.65;;
51854;SDS011;37895;53.240;6.572;2023-08-30T12:18:43;5.22;;;4.30;;
51854;SDS011;37895;53.240;6.572;2023-08-30T12:21:09;6.03;;;4.45;;
51854;SDS011;37895;53.240;6.572;2023-08-30T12:23:34;5.07;;;4.20;;
51854;SDS011;37895;53.240;6.572;2023-08-30T12:26:00;5.03;;;4.50;;
51854;SDS011;37895;53.240;6.572;2023-08-30T12:28:33;5.40;;;4.60;;
51854;SDS011;37895;53.240;6.572;2023-08-30T12:31:00;5.70;;;5.05;;
51854;SDS011;37895;53.240;6.572;2023-08-30T12:33:27;6.88;;;5.72;;
51854;SDS011;37895;53.240;6.572;2023-08-30T12:35:53;7.28;;;5.85;;
51854;SDS011;37895;53.240;6.572;2023-08-30T12:38:20;5.60;;;5.05;;
51854;SDS011;37895;53.240;6.572;2023-08-30T12:40:46;6.15;;;5.55;;
51854;SDS011;37895;53.240;6.572;2023-08-30T12:43:13;7.32;;;5.95;;
51854;SDS011;37895;53.240;6.572;2023-08-30T12:45:40;6.28;;;5.28;;
51854;SDS011;37895;53.240;6.572;2023-08-30T12:50:33;8.18;;;5.63;;
51854;SDS011;37895;53.240;6.572;2023-08-30T12:53:00;8.65;;;7.45;;
51854;SDS011;37895;53.240;6.572;2023-08-30T12:57:52;10.45;;;8.88;;
51854;SDS011;37895;53.240;6.572;2023-08-30T13:00:18;9.73;;;7.95;;
51854;SDS011;37895;53.240;6.572;2023-08-30T13:02:44;11.15;;;8.75;;
51854;SDS011;37895;53.240;6.572;2023-08-30T13:05:10;10.35;;;9.25;;
51854;SDS011;37895;53.240;6.572;2023-08-30T13:07:36;9.35;;;8.38;;
51854;SDS011;37895;53.240;6.572;2023-08-30T13:10:02;9.30;;;8.35;;
51854;SDS011;37895;53.240;6.572;2023-08-30T13:12:28;10.95;;;8.82;;
51854;SDS011;37895;53.240;6.572;2023-08-30T13:14:53;9.35;;;8.38;;
51854;SDS011;37895;53.240;6.572;2023-08-30T13:17:19;10.10;;;9.10;;
51854;SDS011;37895;53.240;6.572;2023-08-30T13:19:44;9.60;;;8.63;;
51854;SDS011;37895;53.240;6.572;2023-08-30T13:22:10;11.00;;;9.55;;
51854;SDS011;37895;53.240;6.572;2023-08-30T13:24:36;10.50;;;9.50;;
51854;SDS011;37895;53.240;6.572;2023-08-30T13:27:02;11.73;;;10.48;;
51854;SDS011;37895;53.240;6.572;2023-08-30T13:29:29;10.27;;;9.25;;
51854;SDS011;37895;53.240;6.572;2023-08-30T13:31:54;11.30;;;10.10;;
51854;SDS011;37895;53.240;6.572;2023-08-30T13:34:20;12.38;;;11.18;;
51854;SDS011;37895;53.240;6.572;2023-08-30T13:36:46;12.25;;;11.05;;
51854;SDS011;37895;53.240;6.572;2023-08-30T13:39:11;12.77;;;11.25;;
51854;SDS011;37895;53.240;6.572;2023-08-30T13:41:37;12.32;;;11.05;;
51854;SDS011;37895;53.240;6.572;2023-08-30T13:44:03;10.35;;;9.27;;
51854;SDS011;37895;53.240;6.572;2023-08-30T13:46:29;11.65;;;9.95;;
51854;SDS011;37895;53.240;6.572;2023-08-30T13:48:55;9.60;;;8.70;;
51854;SDS011;37895;53.240;6.572;2023-08-30T13:51:24;10.40;;;9.40;;
51854;SDS011;37895;53.240;6.572;2023-08-30T13:53:51;10.60;;;9.60;;
51854;SDS011;37895;53.240;6.572;2023-08-30T13:56:18;12.20;;;10.55;;
51854;SDS011;37895;53.240;6.572;2023-08-30T13:58:44;10.75;;;9.70;;
51854;SDS011;37895;53.240;6.572;2023-08-30T14:03:36;7.07;;;6.45;;
51854;SDS011;37895;53.240;6.572;2023-08-30T14:06:02;7.20;;;6.50;;
51854;SDS011;37895;53.240;6.572;2023-08-30T14:10:54;8.10;;;7.30;;
51854;SDS011;37895;53.240;6.572;2023-08-30T14:13:20;7.82;;;7.10;;
51854;SDS011;37895;53.240;6.572;2023-08-30T14:15:46;8.60;;;7.70;;
51854;SDS011;37895;53.240;6.572;2023-08-30T14:18:12;13.93;;;10.20;;
51854;SDS011;37895;53.240;6.572;2023-08-30T14:23:04;11.98;;;9.40;;
51854;SDS011;37895;53.240;6.572;2023-08-30T14:25:29;11.25;;;10.05;;
51854;SDS011;37895;53.240;6.572;2023-08-30T14:27:55;11.23;;;8.68;;
51854;SDS011;37895;53.240;6.572;2023-08-30T14:30:21;12.10;;;9.95;;
51854;SDS011;37895;53.240;6.572;2023-08-30T14:32:47;11.27;;;10.07;;
51854;SDS011;37895;53.240;6.572;2023-08-30T14:35:12;11.85;;;10.68;;
51854;SDS011;37895;53.240;6.572;2023-08-30T14:37:38;11.38;;;10.27;;
51854;SDS011;37895;53.240;6.572;2023-08-30T14:42:30;11.30;;;10.27;;
51854;SDS011;37895;53.240;6.572;2023-08-30T14:44:57;10.93;;;9.82;;
51854;SDS011;37895;53.240;6.572;2023-08-30T14:47:23;10.20;;;9.20;;
51854;SDS011;37895;53.240;6.572;2023-08-30T14:49:49;10.95;;;9.93;;
51854;SDS011;37895;53.240;6.572;2023-08-30T14:52:14;10.32;;;9.27;;
51854;SDS011;37895;53.240;6.572;2023-08-30T14:54:40;9.95;;;9.00;;
51854;SDS011;37895;53.240;6.572;2023-08-30T14:57:07;13.00;;;10.10;;
51854;SDS011;37895;53.240;6.572;2023-08-30T14:59:33;10.70;;;9.60;;
51854;SDS011;37895;53.240;6.572;2023-08-30T15:01:58;9.85;;;8.85;;
51854;SDS011;37895;53.240;6.572;2023-08-30T15:04:24;9.65;;;8.73;;
51854;SDS011;37895;53.240;6.572;2023-08-30T15:06:50;9.52;;;8.70;;
51854;SDS011;37895;53.240;6.572;2023-08-30T15:09:16;8.82;;;7.93;;
51854;SDS011;37895;53.240;6.572;2023-08-30T15:14:08;7.50;;;6.35;;
51854;SDS011;37895;53.240;6.572;2023-08-30T15:16:34;7.25;;;5.88;;
51854;SDS011;37895;53.240;6.572;2023-08-30T15:19:00;6.03;;;5.43;;
51854;SDS011;37895;53.240;6.572;2023-08-30T15:21:26;5.35;;;4.85;;